首页
METAR-TAF:

METAR-TAF

机场 :

塔斯卡卢萨, 阿拉巴马州, 美国

纬度: 33-12-43N, 经度: 087-36-57W, 海拔: 52米

当前天气观测

该预报发布于15分钟前的11:53 UTC
风速5节,风向西北
温度 2°C
湿度 64%
气压 1026 hPa
能見度: 16.1公里
天空无云

METAR: KTCL 271153Z AUTO 32005KT 10SM CLR 02/M04 A3029 RMK AO2 SLP258 70006 T00171044 10050 20017 53007

时间: 06:08 (12:08 UTC)

预报

该预报发布于44分钟前的11:24 UTC
预报有效从27日的 12点(UTC)到 28日的 12点(UTC)
风速4节,风向多变
能見度: 10公里
散云层高于4500英尺
从 27日的 1600点(UTC)
风速6节,风向西北
能見度: 10公里
少量云层高于20000英尺
从 27日的 2000点(UTC)
风速6节,风向西转西北
能見度: 10公里
天空无云
从 27日的 2300点(UTC)
风速4节,风向多变
能見度: 10公里
天空无云

TAF: KTCL 271124Z 2712/2812 VRB04KT P6SM SCT045 FM271600 32006KT P6SM FEW200 FM272000 29006KT P6SM SKC FM272300 VRB04KT P6SM SKC

超过4000个机场的气象观测和天气预报(METAR&TAF报告)。

可查询的气象台以黄色和红色小点在地图上表示。

将鼠标移到小点上方,可查看气象台名称。

然后点击查看天气观测和预报。

如需切换地图:点击带黑十字的绿色按钮放大地图;点击带横线的绿色按钮缩小地图;或者点击绿色箭头查看邻近地区的地图。


METAR-TAF: